Time;durP1;ratioP1;P1;durP2;ratioP2;P2;SDS_P1;SDS_P2;PMS_P1;PMS_P2;Temp;Humidity;BMP_temperature;BMP_pressure;BME280_temperature;BME280_humidity;BME280_pressure;Samples;Min_cycle;Max_cycle;Signal;HPM_P1;HPM_P2
2022/04/19 00:02:47;;;;;;;7.23;3.50;;;;;;;;;;4962827;28;20673;-88
2022/04/19 00:05:51;;;;;;;7.07;3.70;;;;;;;;;;4952272;28;20207;-88
2022/04/19 00:08:55;;;;;;;4.57;3.53;;;;;;;;;;4963624;28;20183;-88
2022/04/19 00:12:00;;;;;;;4.47;2.93;;;;;;;;;;4962920;28;20686;-88
2022/04/19 00:15:05;;;;;;;6.77;3.20;;;;;;;;;;4963156;28;20171;-89
2022/04/19 00:18:10;;;;;;;3.70;2.97;;;;;;;;;;4962972;28;20179;-88
2022/04/19 00:21:14;;;;;;;5.33;3.33;;;;;;;;;;4951729;28;20203;-88
2022/04/19 00:24:18;;;;;;;5.83;3.40;;;;;;;;;;4951680;28;20214;-88
2022/04/19 00:27:22;;;;;;;4.50;2.77;;;;;;;;;;4951831;28;20191;-88
2022/04/19 00:30:26;;;;;;;3.33;2.67;;;;;;;;;;4963004;28;20187;-88
2022/04/19 00:33:31;;;;;;;6.30;3.07;;;;;;;;;;4962424;28;20223;-89
2022/04/19 00:36:35;;;;;;;4.20;2.87;;;;;;;;;;4967359;28;20175;-87
2022/04/19 00:39:40;;;;;;;3.17;2.30;;;;;;;;;;4958029;28;20524;-87
2022/04/19 00:42:44;;;;;;;3.60;2.80;;;;;;;;;;4958034;28;20214;-87
2022/04/19 00:45:48;;;;;;;3.53;2.53;;;;;;;;;;4968434;28;20665;-87
2022/04/19 00:48:52;;;;;;;3.03;2.47;;;;;;;;;;4958079;28;20187;-87
2022/04/19 00:51:57;;;;;;;3.43;2.40;;;;;;;;;;4979337;28;20206;-87
2022/04/19 00:55:03;;;;;;;4.60;2.70;;;;;;;;;;4957716;28;20371;-87
2022/04/19 00:58:12;;;;;;;3.07;2.30;;;;;;;;;;4968759;28;20194;-87
2022/04/19 01:01:18;;;;;;;4.47;2.60;;;;;;;;;;4968427;28;20187;-88
2022/04/19 01:04:22;;;;;;;2.70;2.10;;;;;;;;;;4967347;28;20234;-87
2022/04/19 01:07:27;;;;;;;6.03;2.57;;;;;;;;;;4978782;28;20203;-87
2022/04/19 01:10:35;;;;;;;3.00;2.63;;;;;;;;;;4967204;28;20551;-88
2022/04/19 01:13:39;;;;;;;5.53;2.60;;;;;;;;;;4967566;28;20618;-87
2022/04/19 01:16:44;;;;;;;2.83;2.20;;;;;;;;;;4967456;28;20184;-87
2022/04/19 01:19:49;;;;;;;4.20;2.60;;;;;;;;;;4967839;28;20613;-87
2022/04/19 01:22:57;;;;;;;3.20;2.37;;;;;;;;;;4978347;28;20982;-87
2022/04/19 01:26:06;;;;;;;2.57;2.33;;;;;;;;;;4967379;28;20215;-87
2022/04/19 01:29:16;;;;;;;3.07;2.60;;;;;;;;;;4968235;28;20179;-87
2022/04/19 01:32:25;;;;;;;3.03;2.13;;;;;;;;;;4967365;28;20214;-87
2022/04/19 01:35:29;;;;;;;4.33;2.63;;;;;;;;;;4966708;28;20554;-87
2022/04/19 01:38:36;;;;;;;3.97;2.37;;;;;;;;;;4956057;28;20187;-87
2022/04/19 01:41:40;;;;;;;3.57;2.67;;;;;;;;;;4977846;28;20554;-87
2022/04/19 01:44:44;;;;;;;3.37;2.70;;;;;;;;;;4966149;28;20654;-87
2022/04/19 01:47:49;;;;;;;3.13;2.13;;;;;;;;;;4966889;28;20547;-87
2022/04/19 01:50:53;;;;;;;2.77;2.20;;;;;;;;;;4966715;28;20551;-87
2022/04/19 01:53:58;;;;;;;3.40;2.30;;;;;;;;;;4977560;28;20215;-87
2022/04/19 01:57:03;;;;;;;3.17;2.30;;;;;;;;;;4966937;28;20175;-87
2022/04/19 02:00:20;;;;;;;2.23;2.03;;;;;;;;;;4957054;28;20195;-87
2022/04/19 02:03:29;;;;;;;3.17;2.20;;;;;;;;;;4956837;28;20621;-88
2022/04/19 02:06:35;;;;;;;10.57;2.60;;;;;;;;;;4955629;28;20658;-87
2022/04/19 02:09:39;;;;;;;2.63;2.20;;;;;;;;;;4955120;28;20186;-88
2022/04/19 02:12:46;;;;;;;2.70;2.17;;;;;;;;;;4976397;28;20258;-89
2022/04/19 02:16:14;;;;;;;3.23;1.97;;;;;;;;;;4982048;28;21069;-89
2022/04/19 02:19:18;;;;;;;3.03;2.10;;;;;;;;;;4965035;28;20558;-88
2022/04/19 02:22:22;;;;;;;4.50;2.10;;;;;;;;;;4964955;28;20633;-88
2022/04/19 02:25:28;;;;;;;4.37;2.13;;;;;;;;;;4964865;28;20206;-88
2022/04/19 02:28:32;;;;;;;3.07;2.00;;;;;;;;;;4953675;28;20551;-88
2022/04/19 02:31:59;;;;;;;2.80;2.17;;;;;;;;;;4979035;28;20630;-88
2022/04/19 02:35:05;;;;;;;2.73;2.03;;;;;;;;;;4953590;28;20559;-88
2022/04/19 02:38:09;;;;;;;2.60;2.20;;;;;;;;;;4964543;28;20539;-88
2022/04/19 02:41:23;;;;;;;5.10;2.20;;;;;;;;;;4964517;28;20267;-88
2022/04/19 02:44:33;;;;;;;3.83;2.10;;;;;;;;;;4965132;28;20183;-88
2022/04/19 02:48:04;;;;;;;2.93;2.20;;;;;;;;;;4964385;28;20183;-88
2022/04/19 02:51:08;;;;;;;5.67;2.70;;;;;;;;;;4953391;28;20547;-88
2022/04/19 02:54:12;;;;;;;2.43;2.20;;;;;;;;;;4964204;28;20178;-88
2022/04/19 02:57:18;;;;;;;3.53;2.60;;;;;;;;;;4952218;28;20175;-88
2022/04/19 03:00:23;;;;;;;3.60;2.20;;;;;;;;;;4964258;28;20183;-88
2022/04/19 03:03:29;;;;;;;3.03;2.40;;;;;;;;;;4963877;28;20218;-88
2022/04/19 03:06:34;;;;;;;2.67;2.10;;;;;;;;;;4963765;28;20649;-88
2022/04/19 03:09:38;;;;;;;4.47;2.50;;;;;;;;;;4963866;28;20183;-88
2022/04/19 03:12:44;;;;;;;3.17;2.33;;;;;;;;;;4963854;28;20690;-88
2022/04/19 03:15:55;;;;;;;2.77;2.23;;;;;;;;;;4963587;28;20179;-89
2022/04/19 03:19:00;;;;;;;5.43;2.40;;;;;;;;;;4964041;28;20179;-88
2022/04/19 03:22:05;;;;;;;2.73;2.47;;;;;;;;;;4952850;28;20649;-89
2022/04/19 03:28:32;;;;;;;5.60;2.60;;;;;;;;;;4963607;28;20523;-89
2022/04/19 03:31:37;;;;;;;4.90;2.73;;;;;;;;;;4952432;28;20187;-88
2022/04/19 03:34:42;;;;;;;3.93;2.37;;;;;;;;;;4951983;28;20199;-88
2022/04/19 03:37:46;;;;;;;3.00;2.30;;;;;;;;;;4974479;28;20174;-88
2022/04/19 03:40:50;;;;;;;3.30;2.70;;;;;;;;;;4963365;28;20187;-88
2022/04/19 03:43:55;;;;;;;3.97;2.57;;;;;;;;;;4963173;28;20567;-88
2022/04/19 03:47:09;;;;;;;3.13;2.47;;;;;;;;;;4963743;28;20210;-88
2022/04/19 03:50:14;;;;;;;3.90;2.70;;;;;;;;;;4963666;28;20183;-88
2022/04/19 03:53:18;;;;;;;3.53;2.67;;;;;;;;;;4963360;28;20210;-89
2022/04/19 03:56:23;;;;;;;5.27;3.10;;;;;;;;;;4963756;28;20175;-88
2022/04/19 03:59:27;;;;;;;5.70;2.70;;;;;;;;;;4963544;28;20179;-89
2022/04/19 04:02:32;;;;;;;4.27;2.53;;;;;;;;;;4974605;28;20223;-88
2022/04/19 04:05:36;;;;;;;2.93;2.50;;;;;;;;;;4963108;28;20954;-88
2022/04/19 04:08:40;;;;;;;5.03;2.43;;;;;;;;;;4965394;28;20547;-88
2022/04/19 04:11:44;;;;;;;4.30;2.60;;;;;;;;;;4967349;28;20182;-88
2022/04/19 04:14:54;;;;;;;6.30;2.57;;;;;;;;;;4968488;28;20546;-88
2022/04/19 04:17:58;;;;;;;3.00;2.53;;;;;;;;;;4967454;28;20891;-88
2022/04/19 04:21:02;;;;;;;3.73;2.43;;;;;;;;;;4978852;28;20554;-87
2022/04/19 04:24:07;;;;;;;3.33;2.57;;;;;;;;;;4967232;28;20550;-88
2022/04/19 04:27:15;;;;;;;4.87;2.70;;;;;;;;;;4967830;28;20646;-88
2022/04/19 04:30:20;;;;;;;4.53;2.83;;;;;;;;;;4967409;28;20546;-88
2022/04/19 04:33:32;;;;;;;4.80;2.60;;;;;;;;;;4968109;28;20621;-88
2022/04/19 04:36:40;;;;;;;4.23;2.63;;;;;;;;;;4956234;28;20534;-88
2022/04/19 04:39:46;;;;;;;4.53;3.13;;;;;;;;;;4967038;28;20539;-88
2022/04/19 04:43:02;;;;;;;4.23;2.63;;;;;;;;;;4977514;28;20626;-88
2022/04/19 04:49:36;;;;;;;4.00;3.10;;;;;;;;;;4966554;28;20567;-88
2022/04/19 04:52:41;;;;;;;4.33;3.10;;;;;;;;;;4967004;28;20622;-88
2022/04/19 04:55:46;;;;;;;4.20;3.13;;;;;;;;;;4966911;28;20554;-88
2022/04/19 04:58:59;;;;;;;4.97;3.27;;;;;;;;;;4967686;28;20883;-88
2022/04/19 05:02:07;;;;;;;4.90;3.00;;;;;;;;;;4967205;28;20622;-88
2022/04/19 05:05:11;;;;;;;4.03;3.00;;;;;;;;;;4955408;28;20614;-88
2022/04/19 05:08:18;;;;;;;3.53;2.83;;;;;;;;;;4966867;28;20593;-88
2022/04/19 05:11:22;;;;;;;3.13;2.70;;;;;;;;;;4966912;28;21148;-87
2022/04/19 05:14:27;;;;;;;4.70;3.00;;;;;;;;;;4967307;28;20610;-88
2022/04/19 05:17:31;;;;;;;4.57;3.00;;;;;;;;;;4966787;28;20606;-87
2022/04/19 05:20:36;;;;;;;6.87;3.03;;;;;;;;;;4966503;28;20562;-88
2022/04/19 05:23:40;;;;;;;5.30;3.17;;;;;;;;;;4966638;28;20640;-88
2022/04/19 05:26:46;;;;;;;3.77;2.73;;;;;;;;;;4968370;28;20618;-88
2022/04/19 05:29:50;;;;;;;5.30;2.63;;;;;;;;;;4965755;28;20551;-88
2022/04/19 05:32:55;;;;;;;5.07;2.83;;;;;;;;;;4966034;28;20626;-88
2022/04/19 05:35:59;;;;;;;6.57;3.03;;;;;;;;;;4954847;28;20543;-89
2022/04/19 05:39:03;;;;;;;10.37;6.80;;;;;;;;;;4954715;28;20179;-89
2022/04/19 05:42:09;;;;;;;20.17;12.43;;;;;;;;;;4966422;28;20214;-88
2022/04/19 05:45:13;;;;;;;25.63;14.90;;;;;;;;;;4965567;28;20192;-88
2022/04/19 05:48:17;;;;;;;14.33;8.37;;;;;;;;;;4954362;28;20190;-88
2022/04/19 05:51:21;;;;;;;6.40;5.13;;;;;;;;;;4954361;28;20186;-88
2022/04/19 05:54:29;;;;;;;4.77;3.00;;;;;;;;;;4964795;28;20199;-87
2022/04/19 05:57:35;;;;;;;5.17;3.00;;;;;;;;;;4966853;28;20183;-88
2022/04/19 06:00:40;;;;;;;9.00;2.93;;;;;;;;;;4967493;28;20187;-88
2022/04/19 06:07:08;;;;;;;5.70;3.23;;;;;;;;;;4966943;28;20215;-88
2022/04/19 06:10:16;;;;;;;5.30;3.57;;;;;;;;;;4966358;28;20187;-88
2022/04/19 06:13:25;;;;;;;6.17;3.60;;;;;;;;;;4965830;28;20219;-88
2022/04/19 06:16:29;;;;;;;4.10;3.40;;;;;;;;;;4964758;28;20171;-89
2022/04/19 06:19:35;;;;;;;5.73;3.20;;;;;;;;;;4964915;28;20638;-90
2022/04/19 06:22:39;;;;;;;6.20;3.20;;;;;;;;;;4953425;28;20713;-89
2022/04/19 06:25:48;;;;;;;5.10;3.77;;;;;;;;;;4975164;28;20191;-90
2022/04/19 06:28:55;;;;;;;6.03;4.03;;;;;;;;;;4975411;28;20523;-90
2022/04/19 06:32:19;;;;;;;5.53;3.50;;;;;;;;;;4976873;28;20218;-89
2022/04/19 06:35:26;;;;;;;5.13;3.47;;;;;;;;;;4953843;28;20183;-89
2022/04/19 06:38:30;;;;;;;4.20;3.60;;;;;;;;;;4964537;28;20175;-89
2022/04/19 06:41:36;;;;;;;6.87;3.83;;;;;;;;;;4953582;28;20183;-90
2022/04/19 06:44:40;;;;;;;4.30;3.37;;;;;;;;;;4963986;28;20183;-90
2022/04/19 06:48:01;;;;;;;4.10;3.27;;;;;;;;;;4975261;28;20211;-88
2022/04/19 06:51:09;;;;;;;4.37;3.40;;;;;;;;;;4964010;28;20195;-90
2022/04/19 06:54:13;;;;;;;8.77;3.43;;;;;;;;;;4963782;28;20182;-90
2022/04/19 06:57:19;;;;;;;10.17;3.30;;;;;;;;;;4963995;28;20179;-90
2022/04/19 07:00:23;;;;;;;4.47;3.20;;;;;;;;;;4964217;28;20183;-90
2022/04/19 07:03:27;;;;;;;7.03;3.97;;;;;;;;;;4952484;28;20222;-90
2022/04/19 07:06:50;;;;;;;4.70;3.57;;;;;;;;;;4977238;28;20215;-90
2022/04/19 07:09:54;;;;;;;5.20;3.30;;;;;;;;;;4952752;28;20182;-90
2022/04/19 07:12:58;;;;;;;5.63;3.57;;;;;;;;;;4963472;28;20222;-90
2022/04/19 07:16:02;;;;;;;5.03;3.30;;;;;;;;;;4952980;28;20179;-90
2022/04/19 07:19:06;;;;;;;4.50;3.57;;;;;;;;;;4963601;28;20543;-90
2022/04/19 07:29:00;;;;;;;5.40;3.30;;;;;;;;;;4974419;28;20186;-90
2022/04/19 07:32:06;;;;;;;4.90;3.40;;;;;;;;;;4952371;28;20218;-88
2022/04/19 07:35:29;;;;;;;3.37;3.07;;;;;;;;;;4963291;28;20627;-88
2022/04/19 07:38:34;;;;;;;6.73;3.43;;;;;;;;;;4963765;28;20179;-88
2022/04/19 07:42:00;;;;;;;4.33;3.70;;;;;;;;;;4970977;28;20223;-89
2022/04/19 07:45:05;;;;;;;5.07;3.23;;;;;;;;;;4952009;28;20187;-89
2022/04/19 07:48:10;;;;;;;3.80;3.40;;;;;;;;;;4963191;28;20666;-89
2022/04/19 07:51:14;;;;;;;3.90;3.40;;;;;;;;;;4962859;28;20678;-86
2022/04/19 07:54:20;;;;;;;5.83;3.23;;;;;;;;;;4962868;28;20202;-90
2022/04/19 07:57:25;;;;;;;3.67;3.10;;;;;;;;;;4974145;28;20519;-90
2022/04/19 08:00:33;;;;;;;4.87;3.20;;;;;;;;;;4963081;28;20179;-90
2022/04/19 08:03:37;;;;;;;5.43;3.67;;;;;;;;;;4963249;28;20218;-90
2022/04/19 08:06:41;;;;;;;4.40;3.40;;;;;;;;;;4951789;28;20211;-90
2022/04/19 08:09:46;;;;;;;5.60;3.10;;;;;;;;;;4963028;28;20187;-90
2022/04/19 08:12:50;;;;;;;5.67;3.13;;;;;;;;;;4962929;28;20219;-90
2022/04/19 08:15:54;;;;;;;3.90;3.23;;;;;;;;;;4963102;28;20542;-90
2022/04/19 08:18:58;;;;;;;5.27;3.23;;;;;;;;;;4962862;28;20194;-90
2022/04/19 08:22:03;;;;;;;5.47;3.17;;;;;;;;;;4962772;28;20222;-90
2022/04/19 08:25:11;;;;;;;4.80;2.90;;;;;;;;;;4952099;28;20183;-90
2022/04/19 08:28:16;;;;;;;9.70;3.27;;;;;;;;;;4962933;28;20218;-91
2022/04/19 08:31:21;;;;;;;6.60;3.33;;;;;;;;;;4951648;28;20182;-90
2022/04/19 08:34:25;;;;;;;12.23;3.77;;;;;;;;;;4951676;28;20187;-91
2022/04/19 08:37:30;;;;;;;5.17;3.20;;;;;;;;;;4974302;28;20201;-90
2022/04/19 08:40:35;;;;;;;5.67;3.63;;;;;;;;;;4962789;28;20191;-90
2022/04/19 08:43:42;;;;;;;13.53;3.30;;;;;;;;;;4962685;28;20222;-90
2022/04/19 08:46:46;;;;;;;5.50;3.40;;;;;;;;;;4962569;28;20217;-91
2022/04/19 08:49:54;;;;;;;4.13;3.07;;;;;;;;;;4962716;28;20630;-90
2022/04/19 09:00:04;;;;;;;3.50;2.87;;;;;;;;;;4965823;28;20187;-90
2022/04/19 09:03:08;;;;;;;2.90;2.53;;;;;;;;;;4954861;28;20218;-91
2022/04/19 09:06:12;;;;;;;3.87;3.03;;;;;;;;;;4965802;28;20183;-90
2022/04/19 09:09:21;;;;;;;3.03;2.70;;;;;;;;;;4965794;28;20183;-91
2022/04/19 09:12:26;;;;;;;3.70;2.53;;;;;;;;;;4954733;28;20689;-90
2022/04/19 09:15:44;;;;;;;3.87;2.30;;;;;;;;;;4976793;28;20187;-91
2022/04/19 09:18:48;;;;;;;4.13;2.87;;;;;;;;;;4965573;28;20523;-91
2022/04/19 09:21:53;;;;;;;4.77;2.50;;;;;;;;;;4977088;28;20194;-90
2022/04/19 09:25:13;;;;;;;7.20;1.90;;;;;;;;;;4966193;28;20187;-91
2022/04/19 09:28:22;;;;;;;4.27;1.93;;;;;;;;;;4954450;28;20214;-91
2022/04/19 09:31:30;;;;;;;14.53;2.07;;;;;;;;;;4976505;28;20187;-91
2022/04/19 09:34:36;;;;;;;3.50;1.80;;;;;;;;;;4976602;28;20194;-92
2022/04/19 09:37:47;;;;;;;2.20;1.60;;;;;;;;;;4965067;28;20646;-91
2022/04/19 09:40:51;;;;;;;2.10;1.70;;;;;;;;;;4954054;28;20175;-92
2022/04/19 09:44:06;;;;;;;2.53;1.77;;;;;;;;;;4965237;28;20693;-91
2022/04/19 09:47:12;;;;;;;3.13;2.13;;;;;;;;;;4965028;28;20670;-91
2022/04/19 09:50:17;;;;;;;3.20;1.60;;;;;;;;;;4964955;28;20203;-91
2022/04/19 09:53:23;;;;;;;1.90;1.70;;;;;;;;;;4965176;28;20222;-91
2022/04/19 09:56:35;;;;;;;2.97;1.60;;;;;;;;;;4953823;28;20183;-92
2022/04/19 09:59:44;;;;;;;2.87;1.87;;;;;;;;;;4965021;28;20565;-92
2022/04/19 10:09:37;;;;;;;6.00;2.57;;;;;;;;;;4964714;28;20179;-91
2022/04/19 10:12:44;;;;;;;9.87;2.90;;;;;;;;;;4986794;28;20214;-91
2022/04/19 10:15:49;;;;;;;2.70;2.37;;;;;;;;;;4953261;28;20650;-92
2022/04/19 10:18:53;;;;;;;3.70;2.73;;;;;;;;;;4953467;28;20647;-92
2022/04/19 10:22:05;;;;;;;3.53;2.53;;;;;;;;;;4964574;28;20179;-91
2022/04/19 10:25:16;;;;;;;3.53;2.47;;;;;;;;;;4964101;28;20187;-91
2022/04/19 10:28:27;;;;;;;3.67;2.57;;;;;;;;;;4964228;28;20210;-92
2022/04/19 10:31:35;;;;;;;3.57;2.10;;;;;;;;;;4964683;28;20627;-91
2022/04/19 10:34:44;;;;;;;4.00;2.53;;;;;;;;;;4953194;28;20183;-92
2022/04/19 10:38:20;;;;;;;2.80;2.20;;;;;;;;;;4952976;28;20179;-91
2022/04/19 10:41:56;;;;;;;4.40;2.17;;;;;;;;;;4953072;28;20187;-91
2022/04/19 10:45:10;;;;;;;3.70;2.00;;;;;;;;;;4964135;28;20175;-91
2022/04/19 10:48:16;;;;;;;1.80;1.40;;;;;;;;;;4953069;28;20211;-91
2022/04/19 10:51:28;;;;;;;3.10;1.63;;;;;;;;;;4964198;28;20183;-91
2022/04/19 10:55:06;;;;;;;2.23;1.80;;;;;;;;;;4952631;28;20199;-91
2022/04/19 10:58:15;;;;;;;2.07;1.70;;;;;;;;;;4975136;28;20179;-91
2022/04/19 11:01:30;;;;;;;1.90;1.70;;;;;;;;;;4963705;28;20190;-91
2022/04/19 11:04:38;;;;;;;2.07;1.83;;;;;;;;;;4963568;28;20179;-91
2022/04/19 11:07:43;;;;;;;2.80;1.97;;;;;;;;;;4963680;28;20270;-92
2022/04/19 11:11:02;;;;;;;2.67;1.97;;;;;;;;;;4963602;28;20198;-91
2022/04/19 11:14:20;;;;;;;2.27;2.00;;;;;;;;;;4952714;28;20183;-92
2022/04/19 11:17:27;;;;;;;3.20;1.50;;;;;;;;;;4963359;28;20647;-91
2022/04/19 11:20:45;;;;;;;1.80;1.60;;;;;;;;;;4952314;28;20187;-91
2022/04/19 11:23:50;;;;;;;2.00;1.60;;;;;;;;;;4963224;28;20222;-91
2022/04/19 11:26:54;;;;;;;1.67;1.37;;;;;;;;;;4952245;28;20189;-91
2022/04/19 11:30:11;;;;;;;3.07;1.20;;;;;;;;;;4963354;28;20179;-91
2022/04/19 11:33:28;;;;;;;2.03;1.50;;;;;;;;;;4952072;28;20218;-91
2022/04/19 11:36:34;;;;;;;2.80;1.30;;;;;;;;;;4963184;28;20187;-91
2022/04/19 11:46:45;;;;;;;2.50;1.47;;;;;;;;;;4965112;28;20515;-91
2022/04/19 11:49:51;;;;;;;1.70;1.50;;;;;;;;;;4964231;28;20176;-88
2022/04/19 11:52:55;;;;;;;2.20;1.50;;;;;;;;;;4953211;28;20562;-89
2022/04/19 11:56:01;;;;;;;1.73;1.60;;;;;;;;;;4965637;28;20199;-88
2022/04/19 11:59:05;;;;;;;2.43;1.60;;;;;;;;;;4976189;28;20190;-86
2022/04/19 12:02:17;;;;;;;1.63;1.43;;;;;;;;;;4954273;28;20214;-86
2022/04/19 12:05:26;;;;;;;3.33;1.60;;;;;;;;;;4964983;28;20183;-86
2022/04/19 12:08:33;;;;;;;11.40;2.27;;;;;;;;;;4953938;28;20211;-88
2022/04/19 12:11:37;;;;;;;2.37;1.37;;;;;;;;;;4976080;28;20194;-85
2022/04/19 12:14:41;;;;;;;2.00;1.37;;;;;;;;;;4975267;28;20212;-86
2022/04/19 12:17:46;;;;;;;5.00;1.47;;;;;;;;;;4951519;28;20551;-86
2022/04/19 12:20:50;;;;;;;2.50;1.50;;;;;;;;;;4957143;29;20184;-86
2022/04/19 12:23:54;;;;;;;2.33;1.43;;;;;;;;;;4944245;29;20699;-84
2022/04/19 12:27:06;;;;;;;2.57;1.43;;;;;;;;;;4945884;29;20647;-85
2022/04/19 12:30:12;;;;;;;1.37;1.20;;;;;;;;;;4947323;29;20219;-86
2022/04/19 12:33:16;;;;;;;1.67;1.17;;;;;;;;;;4949183;29;20575;-86
2022/04/19 12:36:22;;;;;;;8.20;1.80;;;;;;;;;;4940161;29;20199;-85
2022/04/19 12:39:26;;;;;;;2.90;1.50;;;;;;;;;;4971856;28;20195;-87
2022/04/19 12:42:50;;;;;;;1.57;1.30;;;;;;;;;;4950025;28;20215;-84
2022/04/19 12:45:54;;;;;;;1.87;1.40;;;;;;;;;;4960470;29;20183;-85
2022/04/19 12:48:58;;;;;;;2.97;1.63;;;;;;;;;;4954256;28;20219;-84
2022/04/19 12:52:07;;;;;;;2.50;1.10;;;;;;;;;;4950377;28;20218;-84
2022/04/19 12:55:12;;;;;;;1.57;1.20;;;;;;;;;;4962050;29;20196;-82
2022/04/19 12:58:16;;;;;;;2.50;1.60;;;;;;;;;;4962136;29;20175;-83
2022/04/19 13:01:20;;;;;;;2.87;1.40;;;;;;;;;;4962076;29;20180;-84
2022/04/19 13:04:25;;;;;;;4.37;1.50;;;;;;;;;;4962652;29;20188;-83
2022/04/19 13:14:17;;;;;;;2.17;1.60;;;;;;;;;;4962456;29;20188;-84
2022/04/19 13:17:22;;;;;;;10.17;2.47;;;;;;;;;;4947107;29;20180;-86
2022/04/19 13:20:28;;;;;;;2.03;1.40;;;;;;;;;;4947627;29;20559;-89
2022/04/19 13:23:32;;;;;;;1.37;1.17;;;;;;;;;;4957667;28;20223;-89
2022/04/19 13:26:36;;;;;;;1.80;1.40;;;;;;;;;;4957913;29;20184;-88
2022/04/19 13:29:41;;;;;;;25.57;2.67;;;;;;;;;;4957850;29;20211;-89
2022/04/19 13:32:46;;;;;;;5.67;3.30;;;;;;;;;;4958202;28;20579;-89
2022/04/19 13:35:50;;;;;;;2.63;2.27;;;;;;;;;;4957665;29;20528;-89
2022/04/19 13:38:55;;;;;;;3.40;1.73;;;;;;;;;;4936161;29;20183;-88
2022/04/19 13:41:59;;;;;;;2.50;1.63;;;;;;;;;;4968186;28;20607;-88
2022/04/19 13:45:04;;;;;;;2.40;1.83;;;;;;;;;;4958918;29;20183;-87
2022/04/19 13:48:09;;;;;;;3.13;1.80;;;;;;;;;;4957821;29;20215;-85
2022/04/19 13:51:13;;;;;;;1.40;1.30;;;;;;;;;;4947166;29;20615;-85
2022/04/19 13:54:20;;;;;;;3.57;1.20;;;;;;;;;;4946868;29;20179;-85
2022/04/19 13:57:24;;;;;;;1.50;1.10;;;;;;;;;;4968858;28;20172;-85
2022/04/19 14:00:28;;;;;;;2.40;1.20;;;;;;;;;;4958116;29;20195;-85
2022/04/19 14:03:32;;;;;;;2.90;2.70;;;;;;;;;;4957264;28;20219;-85
2022/04/19 14:06:39;;;;;;;4.83;1.93;;;;;;;;;;4957332;29;20631;-85
2022/04/19 14:09:43;;;;;;;2.80;1.13;;;;;;;;;;4956849;29;20208;-85
2022/04/19 14:12:48;;;;;;;1.13;1.00;;;;;;;;;;4945477;29;20690;-85
2022/04/19 14:15:52;;;;;;;2.90;2.40;;;;;;;;;;4945244;29;20199;-85
2022/04/19 14:18:56;;;;;;;3.77;2.17;;;;;;;;;;4967563;28;20195;-85
2022/04/19 14:22:00;;;;;;;2.00;1.80;;;;;;;;;;4956637;28;20235;-88
2022/04/19 14:25:05;;;;;;;3.90;1.80;;;;;;;;;;4934533;29;20183;-88
2022/04/19 14:28:09;;;;;;;6.50;1.60;;;;;;;;;;4945127;29;20246;-88
2022/04/19 14:34:35;;;;;;;3.00;1.80;;;;;;;;;;4945236;29;20184;-88
2022/04/19 14:37:39;;;;;;;6.00;1.87;;;;;;;;;;4956042;29;20184;-88
2022/04/19 14:40:44;;;;;;;2.03;1.80;;;;;;;;;;4956123;29;20183;-88
2022/04/19 14:43:48;;;;;;;6.03;1.67;;;;;;;;;;4966866;28;20223;-86
2022/04/19 14:46:55;;;;;;;4.50;2.00;;;;;;;;;;4956214;29;20651;-84
2022/04/19 14:49:59;;;;;;;3.00;2.57;;;;;;;;;;4944965;29;20548;-88
2022/04/19 14:53:03;;;;;;;3.70;1.50;;;;;;;;;;4943740;29;20219;-88
2022/04/19 14:56:07;;;;;;;1.80;1.40;;;;;;;;;;4945069;29;20187;-88
2022/04/19 14:59:12;;;;;;;2.40;1.57;;;;;;;;;;4955804;28;20619;-88
2022/04/19 15:02:16;;;;;;;1.77;1.40;;;;;;;;;;4966273;28;20215;-88
2022/04/19 15:05:20;;;;;;;6.03;2.10;;;;;;;;;;4955669;29;20635;-88
2022/04/19 15:08:24;;;;;;;3.17;1.50;;;;;;;;;;4955412;29;20199;-89
2022/04/19 15:11:29;;;;;;;3.13;1.50;;;;;;;;;;4944434;29;20192;-86
2022/04/19 15:14:34;;;;;;;1.83;1.13;;;;;;;;;;4933510;29;20187;-88
2022/04/19 15:17:38;;;;;;;1.60;1.37;;;;;;;;;;4934219;29;20187;-89
2022/04/19 15:20:42;;;;;;;1.40;1.20;;;;;;;;;;4955198;29;20180;-89
2022/04/19 15:23:47;;;;;;;1.30;0.90;;;;;;;;;;4991761;22;20234;-88
2022/04/19 15:26:51;;;;;;;2.37;1.20;;;;;;;;;;4997869;28;20174;-86
2022/04/19 15:29:55;;;;;;;2.20;1.10;;;;;;;;;;4976231;28;20206;-83
2022/04/19 15:32:59;;;;;;;1.40;1.10;;;;;;;;;;4977634;28;20186;-82
2022/04/19 15:36:04;;;;;;;1.73;1.00;;;;;;;;;;4954454;28;20179;-86
2022/04/19 15:39:08;;;;;;;7.60;1.17;;;;;;;;;;4952919;28;20198;-86
2022/04/19 15:42:12;;;;;;;12.83;1.30;;;;;;;;;;4978290;28;20639;-83
2022/04/19 15:45:16;;;;;;;11.17;1.13;;;;;;;;;;4956967;28;20225;-84
2022/04/19 15:48:21;;;;;;;4.50;1.00;;;;;;;;;;4954414;28;20550;-82
2022/04/19 15:51:25;;;;;;;1.20;1.00;;;;;;;;;;4965138;28;20175;-82
2022/04/19 15:54:29;;;;;;;0.97;0.73;;;;;;;;;;4964157;28;20215;-82
2022/04/19 15:57:33;;;;;;;4.10;1.20;;;;;;;;;;4952987;28;20175;-85
2022/04/19 16:00:37;;;;;;;1.60;0.90;;;;;;;;;;4952400;28;20527;-85
2022/04/19 16:03:42;;;;;;;3.03;1.07;;;;;;;;;;4965833;28;20218;-83
2022/04/19 16:06:45;;;;;;;3.70;1.17;;;;;;;;;;4969254;28;20179;-83
2022/04/19 16:09:50;;;;;;;2.67;0.90;;;;;;;;;;4968603;28;20210;-84
2022/04/19 16:12:57;;;;;;;2.70;0.80;;;;;;;;;;4959165;28;20179;-83
2022/04/19 16:26:11;;;;;;;1.63;0.90;;;;;;;;;;4967729;28;20179;-83
2022/04/19 16:29:15;;;;;;;2.20;1.10;;;;;;;;;;4978617;28;20219;-83
2022/04/19 16:32:19;;;;;;;5.07;3.10;;;;;;;;;;4978074;28;20178;-88
2022/04/19 16:35:24;;;;;;;5.87;2.73;;;;;;;;;;4966841;28;20511;-88
2022/04/19 16:38:28;;;;;;;3.23;1.97;;;;;;;;;;4977868;28;20187;-87
2022/04/19 16:41:32;;;;;;;2.40;1.40;;;;;;;;;;4955187;28;20179;-89
2022/04/19 16:44:36;;;;;;;2.37;1.40;;;;;;;;;;4954765;28;20218;-87
2022/04/19 16:47:40;;;;;;;3.53;1.60;;;;;;;;;;4956142;28;20179;-88
2022/04/19 16:50:45;;;;;;;5.60;1.67;;;;;;;;;;4988470;28;20211;-86
2022/04/19 16:53:49;;;;;;;2.77;1.53;;;;;;;;;;4966408;28;20218;-86
2022/04/19 16:56:53;;;;;;;3.40;1.47;;;;;;;;;;4965783;28;20178;-87
2022/04/19 16:59:57;;;;;;;1.87;1.63;;;;;;;;;;4955215;28;20642;-89
2022/04/19 17:06:28;;;;;;;2.80;1.43;;;;;;;;;;4965564;28;20183;-87
2022/04/19 17:09:33;;;;;;;3.67;2.00;;;;;;;;;;4954677;28;20558;-87
2022/04/19 17:12:37;;;;;;;3.13;1.67;;;;;;;;;;4954696;28;20183;-88
2022/04/19 17:15:42;;;;;;;4.67;1.77;;;;;;;;;;4964473;28;20179;-88
2022/04/19 17:18:47;;;;;;;4.57;1.60;;;;;;;;;;4965600;28;20198;-88
2022/04/19 17:21:51;;;;;;;2.17;1.50;;;;;;;;;;4966251;28;20491;-85
2022/04/19 17:24:55;;;;;;;2.03;1.33;;;;;;;;;;4955905;28;20566;-85
2022/04/19 17:28:00;;;;;;;3.40;1.50;;;;;;;;;;4971498;28;20187;-85
2022/04/19 17:31:04;;;;;;;2.93;1.87;;;;;;;;;;4955260;28;20206;-83
2022/04/19 17:34:08;;;;;;;3.60;2.17;;;;;;;;;;4977890;28;20218;-83
2022/04/19 17:37:13;;;;;;;2.80;2.47;;;;;;;;;;4965606;28;20183;-83
2022/04/19 17:40:16;;;;;;;12.10;7.63;;;;;;;;;;4965599;28;20175;-83
2022/04/19 17:43:22;;;;;;;6.80;3.97;;;;;;;;;;4965683;28;20223;-83
2022/04/19 17:46:27;;;;;;;5.80;3.13;;;;;;;;;;4965035;28;20634;-84
2022/04/19 17:49:31;;;;;;;9.30;6.63;;;;;;;;;;4965395;28;20390;-83
2022/04/19 17:59:21;;;;;;;3.33;2.60;;;;;;;;;;4977162;28;20765;-86
2022/04/19 18:02:25;;;;;;;3.40;2.63;;;;;;;;;;4966666;28;20183;-86
2022/04/19 18:05:29;;;;;;;3.00;2.70;;;;;;;;;;4966173;28;20187;-86
2022/04/19 18:08:35;;;;;;;4.30;2.40;;;;;;;;;;4965934;28;20202;-86
2022/04/19 18:11:39;;;;;;;3.67;2.23;;;;;;;;;;4966102;28;20191;-84
2022/04/19 18:14:43;;;;;;;3.20;2.40;;;;;;;;;;4977133;28;20218;-87
2022/04/19 18:17:47;;;;;;;3.00;2.70;;;;;;;;;;4954056;28;20626;-83
2022/04/19 18:20:51;;;;;;;3.37;2.50;;;;;;;;;;4965804;28;20174;-88
2022/04/19 18:27:18;;;;;;;5.07;2.50;;;;;;;;;;4977079;28;20183;-83
2022/04/19 18:30:24;;;;;;;5.63;3.07;;;;;;;;;;4953845;28;20210;-88
2022/04/19 18:33:28;;;;;;;3.97;2.50;;;;;;;;;;4953955;28;20219;-86
2022/04/19 18:36:34;;;;;;;5.20;3.00;;;;;;;;;;4968768;28;20182;-83
2022/04/19 18:39:39;;;;;;;5.13;2.40;;;;;;;;;;4953308;28;20627;-84
2022/04/19 18:42:43;;;;;;;5.47;2.20;;;;;;;;;;4953430;28;20634;-84
2022/04/19 18:45:48;;;;;;;3.10;1.97;;;;;;;;;;4975867;28;20179;-84
2022/04/19 18:48:52;;;;;;;4.37;2.47;;;;;;;;;;4975488;28;20183;-86
2022/04/19 18:51:56;;;;;;;3.63;2.13;;;;;;;;;;4964561;28;20179;-86
2022/04/19 18:55:00;;;;;;;4.23;2.50;;;;;;;;;;4952711;28;20223;-82
2022/04/19 18:58:06;;;;;;;6.93;2.60;;;;;;;;;;4974989;28;20183;-82
2022/04/19 19:01:10;;;;;;;6.33;2.70;;;;;;;;;;4963947;28;20179;-82
2022/04/19 19:04:15;;;;;;;3.43;2.30;;;;;;;;;;4963636;28;20563;-83
2022/04/19 19:07:20;;;;;;;4.20;2.40;;;;;;;;;;4953157;28;20625;-82
2022/04/19 19:10:25;;;;;;;4.97;2.70;;;;;;;;;;4963661;28;20538;-87
2022/04/19 19:13:29;;;;;;;4.20;3.00;;;;;;;;;;4952496;28;20210;-84
2022/04/19 19:16:33;;;;;;;3.23;2.10;;;;;;;;;;4965123;28;20186;-86
2022/04/19 19:19:37;;;;;;;4.00;2.60;;;;;;;;;;4963622;28;20198;-87
2022/04/19 19:22:41;;;;;;;5.00;2.40;;;;;;;;;;4963194;28;20179;-87
2022/04/19 19:25:46;;;;;;;4.50;2.77;;;;;;;;;;4963153;28;20179;-87
2022/04/19 19:28:52;;;;;;;3.10;2.57;;;;;;;;;;4963244;28;20183;-87
2022/04/19 19:31:58;;;;;;;3.73;2.63;;;;;;;;;;4952092;28;20187;-87
2022/04/19 19:35:04;;;;;;;5.90;2.90;;;;;;;;;;4963073;28;20222;-87
2022/04/19 19:38:08;;;;;;;2.97;2.43;;;;;;;;;;4963377;28;20187;-84
2022/04/19 19:41:12;;;;;;;7.57;2.77;;;;;;;;;;4952680;28;20182;-86
2022/04/19 19:44:16;;;;;;;5.70;2.70;;;;;;;;;;4963043;28;20218;-86
2022/04/19 19:47:21;;;;;;;3.00;2.60;;;;;;;;;;4963574;28;20186;-86
2022/04/19 19:50:25;;;;;;;4.33;2.77;;;;;;;;;;4974430;28;20222;-86